Sierra Nevada Aquatic Research Lab (SNARL) Reserve, Santa Monica Mtns, California Weather observations

Data are for 10 minute period ending at time listed.
 Day   Time   Solar   Ave.   Ave.  Ave.  Vector  Max.   Baro.   Total    
  of    of     Rad.   Air    Rel.  Wind   Wind   Wind  Press.  Precip.   
Year   Day            Temp.  Hum.  Speed  Dir.   Gust                    
2015   (PST)  Kw/m2    F      %     mph   deg.    mph    mb.     in.     
-------------------------------------------------------------------------
 145    9:20   0.61   60.5    44    6.2    76    11.8   783.1    0.00 
 145    9:30   0.72   59.5    45    5.8    81    12.2   783.1    0.00 
 145    9:40   0.61   60.9    44    8.1    94    14.1   783.1    0.00 
 145    9:50   0.49   59.1    45    5.5    80    10.7   783.1    0.00 
 145   10:00   1.06   61.2    43    6.5    80    13.8   783.0    0.00 
 145   10:10   0.83   62.2    40    7.1    82    12.1   783.1    0.00 
 145   10:20   0.52   60.5    42    8.8    97    16.2   783.2    0.00 
 145   10:30   0.42   59.9    43    6.4   113    11.6   783.2    0.00 
 145   10:40   0.88   61.0    41    8.3    94    13.4   783.2    0.00 
 145   10:50   1.08   62.6    39    6.6    91    13.6   783.1    0.00 
 145   11:00   1.13   63.8    38    6.9    71    14.0   783.0    0.00 
 145   11:10   0.76   63.8    38    6.6    76    16.7   783.0    0.00 
 145   11:20   0.49   62.9    38    6.2    70    15.7   783.1    0.00 
 145   11:30   0.69   62.2    40    6.1    89    12.5   783.2    0.00 
 145   11:40   0.84   64.3    38    6.5    88    14.0   783.1    0.00 
 145   11:50   0.82   64.8    37    5.4    65    13.7   783.0    0.00 
 145   12:00   0.32   63.2    41    7.3    54    14.0   783.1    0.00 
 145   12:10   0.24   61.7    42    5.7    36    12.3   783.2    0.00 
 145   12:20   0.40   61.5    43    6.1    46    11.4   783.1    0.00 
 145   12:30   0.77   62.7    41    5.4    21    10.8   782.9    0.00 
 145   12:40   0.24   62.1    41    4.0    22     8.0   782.8    0.00 
 145   12:50   0.54   62.9    40    3.5    90     6.9   782.7    0.00 
 145   13:00   0.56   62.9    39    3.1    52     5.9   782.6    0.00 
 145   13:10   0.43   63.5    38    4.6    38    11.3   782.5    0.00 
 145   13:20   0.96   64.5    36    3.1    27     9.1   782.4    0.00 
 145   13:30   0.57   65.5    34    3.6   212     7.7   782.4    0.00 
 145   13:40   0.56   66.3    31    6.3   212    16.2   782.3    0.00 
 145   13:50   1.08   67.3    30   13.2   211    20.1   782.3    0.00 
 145   14:00   1.10   68.6    30   10.0   225    16.6   782.3    0.00 
 145   14:10   1.04   67.9    30   12.7   218    20.1   782.2    0.00 
 145   14:20   0.56   66.4    31   12.9   208    21.7   782.3    0.00 
 145   14:30   0.78   66.8    32   11.9   208    19.0   782.2    0.00 
 145   14:40   0.92   66.6    31   12.4   224    22.9   782.2    0.00 
 145   14:50   0.91   67.0    32    9.4   223    18.1   782.1    0.00 
 145   15:00   0.71   66.5    32   11.5   229    18.5   782.2    0.00 
 145   15:10   0.79   66.4    33   11.3   226    17.9   782.2    0.00 
 145   15:20   0.74   65.7    34   13.7   241    22.3   782.2    0.00 
 145   15:30   0.68   66.7    34   10.1   239    15.9   782.2    0.00 
 145   15:40   0.65   65.4    35   13.0   234    20.5   782.2    0.00 
 145   15:50   0.61   65.1    36   12.4   234    21.0   782.2    0.00 
 145   16:00   0.58   64.3    36   13.6   230    23.8   782.1    0.00 
 145   16:10   0.54   64.3    36   12.0   246    22.9   782.0    0.00 
 145   16:20   0.51   63.7    36   16.1   240    27.0   782.0    0.00 
 145   16:30   0.48   63.0    37   13.7   233    24.3   782.0    0.00 
 145   16:40   0.44   62.9    37   13.6   252    22.7   782.0    0.00 
 145   16:50   0.41   62.9    36   12.7   243    22.4   782.0    0.00 
 145   17:00   0.37   63.2    36   12.8   262    19.1   782.0    0.00 
 145   17:10   0.33   62.6    37   12.1   259    18.0   781.9    0.00 
 145   17:20   0.30   62.1    37   11.3   261    24.0   781.9    0.00 
 145   17:30   0.26   61.9    37   10.4   256    21.9   781.9    0.00 
 145   17:40   0.23   61.1    38   14.2   240    25.3   781.9    0.00 
 145   17:50   0.19   60.5    39   14.0   243    27.3   781.9    0.00 
 145   18:00   0.16   60.0    40   11.8   240    20.3   782.0    0.00 
 145   18:10   0.13   59.7    40   12.0   238    24.5   782.0    0.00 
 145   18:20   0.10   59.1    40   15.2   234    23.9   781.9    0.00 
 145   18:30   0.07   58.7    40   10.7   235    23.8   782.0    0.00 
 145   18:40   0.05   58.2    41   10.4   225    19.0   782.0    0.00 
 145   18:50   0.02   57.4    41   15.6   232    23.6   781.9    0.00 
 145   19:00   0.01   56.9    42   14.6   224    22.9   782.0    0.00 
 145   19:10   0.00   56.5    43   12.7   230    21.2   782.1    0.00 
 145   19:20   0.00   56.1    42   12.0   237    19.1   782.1    0.00 
 145   19:30   0.00   55.7    43   11.7   234    16.5   782.2    0.00 
 145   19:40   0.00   55.3    44    6.7   258    14.1   782.3    0.00 
 145   19:50   0.00   53.5    49    4.9   289     7.1   782.4    0.00 
 145   20:00   0.00   52.5    52    5.8   291    10.0   782.5    0.00 
 145   20:10   0.00   51.7    56    6.5   295    10.3   782.7    0.00 
 145   20:20   0.00   50.5    61    5.3   283    10.0   782.8    0.00 
 145   20:30   0.00   49.6    63    5.2   247     8.4   783.1    0.00 
 145   20:40   0.00   49.2    64    3.8   240     7.4   783.3    0.00 
 145   20:50   0.00   48.4    66    4.3   232     6.4   783.5    0.00 
 145   21:00   0.00   47.4    66    3.8   221     6.4   783.7    0.00 
 145   21:10   0.00   47.0    67    4.6   241     8.3   783.7    0.00 
 145   21:20   0.00   47.0    68    4.7   260     7.6   783.8    0.00 
 145   21:30   0.00   47.7    66    5.3   257     7.6   783.9    0.00 
 145   21:40   0.00   48.3    63    6.5   267     8.8   783.9    0.00 
 145   21:50   0.00   48.7    61    6.3   275     9.9   783.8    0.00 
 145   22:00   0.00   48.9    60    6.6   264    10.2   783.9    0.00 
 145   22:10   0.00   48.6    62    5.4   269     8.3   783.9    0.00 
 145   22:20   0.00   48.5    63    5.6   268     8.8   783.9    0.00 
 145   22:30   0.00   48.6    64    9.8   250    14.9   783.9    0.00 
 145   22:40   0.00   49.1    62    8.3   253    13.4   783.9    0.00 
 145   22:50   0.00   48.2    62    5.1   257     6.8   784.0    0.00 
 145   23:00   0.00   47.0    63    4.3   269     6.5   784.0    0.00 
 145   23:10   0.00   45.7    66    5.1   259     7.4   784.0    0.00 
 145   23:20   0.00   45.5    68    6.6   262    10.2   784.0    0.00 
 145   23:30   0.00   46.0    68    3.4   303     5.6   784.1    0.00 
 145   23:40   0.00   45.3    72    3.6   274     7.7   784.1    0.00 
 145   23:50   0.00   44.0    73    3.7   236     7.2   784.1    0.00 
 146    0:00   0.00   43.3    74    3.2   260     7.1   784.1    0.00 
 146    0:10   0.00   44.4    72    6.4   247    10.4   784.1    0.00 
 146    0:20   0.00   43.8    72    6.9   229    10.2   784.1    0.00 
 146    0:30   0.00   44.1    72    4.8   263     7.3   784.0    0.00 
 146    0:40   0.00   44.2    72    3.8   277     6.0   784.0    0.00 
 146    0:50   0.00   43.7    73    4.8   301     7.7   784.0    0.00 
 146    1:00   0.00   44.6    71    6.8   298    10.4   784.0    0.00 
 146    1:10   0.00   45.1    70    6.0   289     9.6   783.9    0.00 
 146    1:20   0.00   44.5    71    4.9   295    11.2   784.0    0.00 
 146    1:30   0.00   44.4    70    4.6   284     9.3   783.9    0.00 
 146    1:40   0.00   42.9    73    1.1   183     2.7   783.9    0.00 
 146    1:50   0.00   41.2    77    2.8   100     3.8   783.9    0.00 
 146    2:00   0.00   39.1    81    2.0   219     4.4   783.8    0.00 
 146    2:10   0.00   37.8    85    2.1   298     3.7   783.8    0.00 
 146    2:20   0.00   37.5    86    0.7   212     1.8   783.9    0.00 
 146    2:30   0.00   37.9    84    1.2   240     2.6   783.8    0.00 
 146    2:40   0.00   37.9    84    0.6   172     1.7   783.8    0.00 
 146    2:50   0.00   37.3    84    2.3   130     3.9   783.8    0.00 
 146    3:00   0.00   37.9    86    2.7   231     7.3   783.9    0.00 
 146    3:10   0.00   39.4    81    1.4   313     3.7   783.8    0.00 
 146    3:20   0.00   39.6    81    2.2   316     4.7   783.8    0.00 
 146    3:30   0.00   38.3    83    1.2    66     3.7   783.9    0.00 
 146    3:40   0.00   36.6    86    0.6   231     1.4   784.0    0.00 
 146    3:50   0.00   36.4    88    1.3   124     2.9   784.0    0.00 
 146    4:00   0.00   35.8    89    1.0   112     2.3   784.0    0.00 
 146    4:10   0.00   35.4    89    1.0   120     2.0   784.0    0.00 
 146    4:20   0.00   34.4    90    0.6   150     1.6   784.1    0.00 
 146    4:30   0.00   33.5    92    0.6   215     1.5   784.0    0.00 
 146    4:40   0.00   33.6    92    1.7   229     2.9   784.1    0.00 
 146    4:50   0.00   34.2    93    2.4   209     3.1   784.1    0.00 
 146    5:00   0.01   35.8    90    2.0   267     5.4   784.2    0.00 
 146    5:10   0.01   36.3    89    1.9   334     4.6   784.2    0.00 
 146    5:20   0.02   36.2    90    1.6   271     2.9   784.2    0.00 
 146    5:30   0.04   37.6    90    1.0   314     2.7   784.2    0.00 
 146    5:40   0.11   39.5    88    1.1   119     2.1   784.2    0.00 
 146    5:50   0.15   42.5    79    1.4    57     3.6   784.3    0.00 
 146    6:00   0.18   44.8    74    1.9    42     3.4   784.3    0.00 
 146    6:10   0.21   46.5    70    1.3    39     2.5   784.4    0.00 
 146    6:20   0.25   48.8    65    0.4   336     1.5   784.3    0.00 
 146    6:30   0.28   51.4    59    0.4    86     2.0   784.3    0.00 
 146    6:40   0.32   51.9    60    1.3    14     2.9   784.3    0.00 
 146    6:50   0.35   52.8    59    1.4     6     3.9   784.2    0.00 
 146    7:00   0.39   54.3    57    1.3     4     4.6   784.2    0.00 
 146    7:10   0.42   55.3    56    1.8    14     3.9   784.1    0.00 
 146    7:20   0.46   55.4    56    1.7    12     4.0   784.0    0.00 
 146    7:30   0.49   56.1    55    2.5    32     5.3   783.9    0.00 
 146    7:40   0.53   56.8    54    2.7    36     6.1   783.9    0.00 
 146    7:50   0.56   57.6    53    2.9    41     6.6   784.0    0.00 
 146    8:00   0.60   57.8    53    2.6    43     5.7   783.9    0.00 
 146    8:10   0.63   57.8    53    3.9    51     8.6   783.9    0.00 
 146    8:20   0.66   57.7    53    4.0    59     9.4   783.9    0.00 
 146    8:30   0.69   58.0    51    3.6    54     8.1   783.9    0.00 
 146    8:40   0.69   59.2    48    3.7    79    10.1   784.0    0.00 
 146    8:50   0.74   59.6    47    4.4    73     8.6   784.0    0.00 
 146    9:00   0.78   59.6    47    4.7    83    11.9   784.0    0.00 
 146    9:10   0.81   60.2    46    5.2    66    12.1   784.0    0.00 

Return to SNARL Reserve graphs page.


Western Regional Climate Center,wrcc@dri.edu